sensor_id;sensor_type;location;lat;lon;timestamp;P1;durP1;ratioP1;P2;durP2;ratioP2
7729;SDS011;3908;52.310;7.230;2023-04-24T00:01:10;5.00;;;2.47;;
7729;SDS011;3908;52.310;7.230;2023-04-24T00:03:58;3.37;;;2.70;;
7729;SDS011;3908;52.310;7.230;2023-04-24T00:06:45;3.73;;;2.33;;
7729;SDS011;3908;52.310;7.230;2023-04-24T00:09:34;3.83;;;2.80;;
7729;SDS011;3908;52.310;7.230;2023-04-24T00:12:22;2.73;;;2.50;;
7729;SDS011;3908;52.310;7.230;2023-04-24T00:15:10;4.37;;;2.17;;
7729;SDS011;3908;52.310;7.230;2023-04-24T00:17:58;3.47;;;2.40;;
7729;SDS011;3908;52.310;7.230;2023-04-24T00:20:46;2.50;;;2.30;;
7729;SDS011;3908;52.310;7.230;2023-04-24T00:23:33;2.73;;;2.53;;
7729;SDS011;3908;52.310;7.230;2023-04-24T00:26:20;2.90;;;2.50;;
7729;SDS011;3908;52.310;7.230;2023-04-24T00:29:06;3.30;;;2.67;;
7729;SDS011;3908;52.310;7.230;2023-04-24T00:31:53;3.40;;;3.10;;
7729;SDS011;3908;52.310;7.230;2023-04-24T00:34:41;6.53;;;2.90;;
7729;SDS011;3908;52.310;7.230;2023-04-24T00:37:28;3.37;;;2.83;;
7729;SDS011;3908;52.310;7.230;2023-04-24T00:40:15;4.47;;;3.57;;
7729;SDS011;3908;52.310;7.230;2023-04-24T00:43:01;4.27;;;3.50;;
7729;SDS011;3908;52.310;7.230;2023-04-24T00:45:48;4.00;;;3.60;;
7729;SDS011;3908;52.310;7.230;2023-04-24T00:48:35;4.57;;;4.00;;
7729;SDS011;3908;52.310;7.230;2023-04-24T00:51:23;6.27;;;4.40;;
7729;SDS011;3908;52.310;7.230;2023-04-24T00:54:10;7.30;;;4.70;;
7729;SDS011;3908;52.310;7.230;2023-04-24T00:56:57;6.60;;;4.40;;
7729;SDS011;3908;52.310;7.230;2023-04-24T00:59:44;5.73;;;4.47;;
7729;SDS011;3908;52.310;7.230;2023-04-24T01:02:31;6.00;;;4.73;;
7729;SDS011;3908;52.310;7.230;2023-04-24T01:05:19;6.77;;;4.87;;
7729;SDS011;3908;52.310;7.230;2023-04-24T01:08:07;7.30;;;5.13;;
7729;SDS011;3908;52.310;7.230;2023-04-24T01:10:55;7.53;;;5.93;;
7729;SDS011;3908;52.310;7.230;2023-04-24T01:13:43;8.50;;;6.27;;
7729;SDS011;3908;52.310;7.230;2023-04-24T01:16:30;8.63;;;6.13;;
7729;SDS011;3908;52.310;7.230;2023-04-24T01:19:17;8.00;;;5.70;;
7729;SDS011;3908;52.310;7.230;2023-04-24T01:22:09;6.73;;;5.77;;
7729;SDS011;3908;52.310;7.230;2023-04-24T01:24:57;7.93;;;5.80;;
7729;SDS011;3908;52.310;7.230;2023-04-24T01:27:43;7.00;;;5.37;;
7729;SDS011;3908;52.310;7.230;2023-04-24T01:30:31;7.73;;;5.73;;
7729;SDS011;3908;52.310;7.230;2023-04-24T01:33:18;8.50;;;5.60;;
7729;SDS011;3908;52.310;7.230;2023-04-24T01:36:06;7.27;;;5.40;;
7729;SDS011;3908;52.310;7.230;2023-04-24T01:38:54;6.87;;;4.60;;
7729;SDS011;3908;52.310;7.230;2023-04-24T01:41:41;8.70;;;4.90;;
7729;SDS011;3908;52.310;7.230;2023-04-24T01:44:27;6.47;;;4.87;;
7729;SDS011;3908;52.310;7.230;2023-04-24T01:47:14;4.53;;;3.93;;
7729;SDS011;3908;52.310;7.230;2023-04-24T01:50:01;7.67;;;3.87;;
7729;SDS011;3908;52.310;7.230;2023-04-24T01:52:48;6.57;;;3.87;;
7729;SDS011;3908;52.310;7.230;2023-04-24T01:55:36;7.53;;;3.67;;
7729;SDS011;3908;52.310;7.230;2023-04-24T01:58:23;4.20;;;2.97;;
7729;SDS011;3908;52.310;7.230;2023-04-24T02:01:14;3.50;;;3.13;;
7729;SDS011;3908;52.310;7.230;2023-04-24T02:04:01;5.87;;;3.17;;
7729;SDS011;3908;52.310;7.230;2023-04-24T02:06:48;5.30;;;3.47;;
7729;SDS011;3908;52.310;7.230;2023-04-24T02:09:34;3.57;;;3.27;;
7729;SDS011;3908;52.310;7.230;2023-04-24T02:12:23;4.47;;;3.73;;
7729;SDS011;3908;52.310;7.230;2023-04-24T02:15:10;5.60;;;3.57;;
7729;SDS011;3908;52.310;7.230;2023-04-24T02:17:57;4.40;;;3.90;;
7729;SDS011;3908;52.310;7.230;2023-04-24T02:20:43;4.63;;;4.20;;
7729;SDS011;3908;52.310;7.230;2023-04-24T02:23:30;8.37;;;5.30;;
7729;SDS011;3908;52.310;7.230;2023-04-24T02:26:17;7.10;;;4.57;;
7729;SDS011;3908;52.310;7.230;2023-04-24T02:29:05;12.07;;;6.03;;
7729;SDS011;3908;52.310;7.230;2023-04-24T02:31:52;8.10;;;5.40;;
7729;SDS011;3908;52.310;7.230;2023-04-24T02:34:38;8.47;;;6.27;;
7729;SDS011;3908;52.310;7.230;2023-04-24T02:37:25;10.17;;;5.67;;
7729;SDS011;3908;52.310;7.230;2023-04-24T02:40:12;8.03;;;6.23;;
7729;SDS011;3908;52.310;7.230;2023-04-24T02:42:59;7.97;;;6.27;;
7729;SDS011;3908;52.310;7.230;2023-04-24T02:45:47;8.57;;;6.67;;
7729;SDS011;3908;52.310;7.230;2023-04-24T02:48:34;11.13;;;7.47;;
7729;SDS011;3908;52.310;7.230;2023-04-24T02:51:21;9.47;;;6.97;;
7729;SDS011;3908;52.310;7.230;2023-04-24T02:54:07;9.73;;;7.27;;
7729;SDS011;3908;52.310;7.230;2023-04-24T02:56:55;10.00;;;6.70;;
7729;SDS011;3908;52.310;7.230;2023-04-24T02:59:42;10.27;;;7.57;;
7729;SDS011;3908;52.310;7.230;2023-04-24T03:02:30;13.37;;;7.90;;
7729;SDS011;3908;52.310;7.230;2023-04-24T03:05:17;11.87;;;6.90;;
7729;SDS011;3908;52.310;7.230;2023-04-24T03:08:04;9.33;;;7.00;;
7729;SDS011;3908;52.310;7.230;2023-04-24T03:10:51;10.43;;;7.20;;
7729;SDS011;3908;52.310;7.230;2023-04-24T03:13:38;11.60;;;7.93;;
7729;SDS011;3908;52.310;7.230;2023-04-24T03:16:25;10.17;;;6.90;;
7729;SDS011;3908;52.310;7.230;2023-04-24T03:19:13;12.60;;;7.67;;
7729;SDS011;3908;52.310;7.230;2023-04-24T03:22:01;10.33;;;7.53;;
7729;SDS011;3908;52.310;7.230;2023-04-24T03:24:47;10.73;;;7.67;;
7729;SDS011;3908;52.310;7.230;2023-04-24T03:27:34;13.70;;;8.80;;
7729;SDS011;3908;52.310;7.230;2023-04-24T03:30:21;11.13;;;8.50;;
7729;SDS011;3908;52.310;7.230;2023-04-24T03:33:08;15.13;;;9.13;;
7729;SDS011;3908;52.310;7.230;2023-04-24T03:35:56;16.53;;;9.13;;
7729;SDS011;3908;52.310;7.230;2023-04-24T03:38:43;13.07;;;8.90;;
7729;SDS011;3908;52.310;7.230;2023-04-24T03:41:30;13.97;;;9.23;;
7729;SDS011;3908;52.310;7.230;2023-04-24T03:44:17;13.77;;;9.67;;
7729;SDS011;3908;52.310;7.230;2023-04-24T03:47:03;15.03;;;9.23;;
7729;SDS011;3908;52.310;7.230;2023-04-24T03:49:50;16.70;;;9.77;;
7729;SDS011;3908;52.310;7.230;2023-04-24T03:52:39;13.37;;;9.97;;
7729;SDS011;3908;52.310;7.230;2023-04-24T03:55:25;16.63;;;9.40;;
7729;SDS011;3908;52.310;7.230;2023-04-24T03:58:12;14.10;;;9.00;;
7729;SDS011;3908;52.310;7.230;2023-04-24T04:00:59;14.13;;;8.90;;
7729;SDS011;3908;52.310;7.230;2023-04-24T04:03:46;15.00;;;9.57;;
7729;SDS011;3908;52.310;7.230;2023-04-24T04:06:33;15.17;;;8.43;;
7729;SDS011;3908;52.310;7.230;2023-04-24T04:09:21;13.50;;;9.30;;
7729;SDS011;3908;52.310;7.230;2023-04-24T04:12:08;14.83;;;8.80;;
7729;SDS011;3908;52.310;7.230;2023-04-24T04:14:54;17.27;;;10.23;;
7729;SDS011;3908;52.310;7.230;2023-04-24T04:17:41;14.87;;;10.77;;
7729;SDS011;3908;52.310;7.230;2023-04-24T04:20:28;16.87;;;10.43;;
7729;SDS011;3908;52.310;7.230;2023-04-24T04:23:15;16.60;;;10.33;;
7729;SDS011;3908;52.310;7.230;2023-04-24T04:26:03;14.17;;;10.33;;
7729;SDS011;3908;52.310;7.230;2023-04-24T04:28:50;20.37;;;11.57;;
7729;SDS011;3908;52.310;7.230;2023-04-24T04:31:37;17.03;;;11.43;;
7729;SDS011;3908;52.310;7.230;2023-04-24T04:34:24;18.73;;;10.67;;
7729;SDS011;3908;52.310;7.230;2023-04-24T04:37:10;17.43;;;11.90;;
7729;SDS011;3908;52.310;7.230;2023-04-24T04:39:58;20.73;;;12.53;;
7729;SDS011;3908;52.310;7.230;2023-04-24T04:42:46;17.53;;;11.43;;
7729;SDS011;3908;52.310;7.230;2023-04-24T04:45:33;18.10;;;11.17;;
7729;SDS011;3908;52.310;7.230;2023-04-24T04:48:19;19.70;;;11.67;;
7729;SDS011;3908;52.310;7.230;2023-04-24T04:51:06;18.00;;;11.67;;
7729;SDS011;3908;52.310;7.230;2023-04-24T04:53:53;21.00;;;13.30;;
7729;SDS011;3908;52.310;7.230;2023-04-24T04:56:40;18.97;;;11.90;;
7729;SDS011;3908;52.310;7.230;2023-04-24T04:59:28;19.40;;;12.83;;
7729;SDS011;3908;52.310;7.230;2023-04-24T05:02:15;16.63;;;11.43;;
7729;SDS011;3908;52.310;7.230;2023-04-24T05:05:01;19.07;;;12.10;;
7729;SDS011;3908;52.310;7.230;2023-04-24T05:07:48;22.17;;;12.73;;
7729;SDS011;3908;52.310;7.230;2023-04-24T05:10:35;18.93;;;13.53;;
7729;SDS011;3908;52.310;7.230;2023-04-24T05:13:22;18.57;;;12.13;;
7729;SDS011;3908;52.310;7.230;2023-04-24T05:16:10;18.37;;;11.80;;
7729;SDS011;3908;52.310;7.230;2023-04-24T05:18:57;20.27;;;13.17;;
7729;SDS011;3908;52.310;7.230;2023-04-24T05:21:44;22.20;;;12.90;;
7729;SDS011;3908;52.310;7.230;2023-04-24T05:24:30;20.87;;;13.90;;
7729;SDS011;3908;52.310;7.230;2023-04-24T05:27:17;20.53;;;12.63;;
7729;SDS011;3908;52.310;7.230;2023-04-24T05:30:05;19.30;;;12.30;;
7729;SDS011;3908;52.310;7.230;2023-04-24T05:32:53;19.97;;;12.60;;
7729;SDS011;3908;52.310;7.230;2023-04-24T05:35:40;20.17;;;12.67;;
7729;SDS011;3908;52.310;7.230;2023-04-24T05:38:31;20.73;;;13.00;;
7729;SDS011;3908;52.310;7.230;2023-04-24T05:41:17;22.40;;;13.13;;
7729;SDS011;3908;52.310;7.230;2023-04-24T05:44:04;22.30;;;12.73;;
7729;SDS011;3908;52.310;7.230;2023-04-24T05:46:51;21.13;;;12.10;;
7729;SDS011;3908;52.310;7.230;2023-04-24T05:49:39;18.97;;;13.00;;
7729;SDS011;3908;52.310;7.230;2023-04-24T05:52:25;16.87;;;11.60;;
7729;SDS011;3908;52.310;7.230;2023-04-24T05:55:12;20.20;;;12.87;;
7729;SDS011;3908;52.310;7.230;2023-04-24T05:58:02;17.27;;;11.53;;
7729;SDS011;3908;52.310;7.230;2023-04-24T06:00:49;18.60;;;11.90;;
7729;SDS011;3908;52.310;7.230;2023-04-24T06:03:36;18.60;;;12.47;;
7729;SDS011;3908;52.310;7.230;2023-04-24T06:06:24;20.10;;;12.43;;
7729;SDS011;3908;52.310;7.230;2023-04-24T06:09:12;17.70;;;11.63;;
7729;SDS011;3908;52.310;7.230;2023-04-24T06:11:59;20.00;;;13.53;;
7729;SDS011;3908;52.310;7.230;2023-04-24T06:14:46;16.50;;;11.57;;
7729;SDS011;3908;52.310;7.230;2023-04-24T06:17:32;20.37;;;12.07;;
7729;SDS011;3908;52.310;7.230;2023-04-24T06:20:19;17.03;;;12.17;;
7729;SDS011;3908;52.310;7.230;2023-04-24T06:23:07;16.93;;;12.27;;
7729;SDS011;3908;52.310;7.230;2023-04-24T06:25:54;16.77;;;11.60;;
7729;SDS011;3908;52.310;7.230;2023-04-24T06:28:41;18.87;;;12.40;;
7729;SDS011;3908;52.310;7.230;2023-04-24T06:31:27;17.67;;;12.37;;
7729;SDS011;3908;52.310;7.230;2023-04-24T06:34:14;18.23;;;11.00;;
7729;SDS011;3908;52.310;7.230;2023-04-24T06:37:01;21.00;;;11.67;;
7729;SDS011;3908;52.310;7.230;2023-04-24T06:39:49;19.97;;;11.47;;
7729;SDS011;3908;52.310;7.230;2023-04-24T06:42:36;14.00;;;10.50;;
7729;SDS011;3908;52.310;7.230;2023-04-24T06:45:23;14.97;;;10.23;;
7729;SDS011;3908;52.310;7.230;2023-04-24T06:48:10;14.17;;;9.60;;
7729;SDS011;3908;52.310;7.230;2023-04-24T06:50:56;19.77;;;11.30;;
7729;SDS011;3908;52.310;7.230;2023-04-24T06:53:43;16.80;;;10.13;;
7729;SDS011;3908;52.310;7.230;2023-04-24T06:56:31;16.27;;;9.63;;
7729;SDS011;3908;52.310;7.230;2023-04-24T06:59:19;14.70;;;9.73;;
7729;SDS011;3908;52.310;7.230;2023-04-24T07:02:06;15.13;;;9.63;;
7729;SDS011;3908;52.310;7.230;2023-04-24T07:04:53;13.73;;;9.80;;
7729;SDS011;3908;52.310;7.230;2023-04-24T07:07:39;17.33;;;9.70;;
7729;SDS011;3908;52.310;7.230;2023-04-24T07:10:28;11.70;;;8.90;;
7729;SDS011;3908;52.310;7.230;2023-04-24T07:13:16;13.10;;;8.77;;
7729;SDS011;3908;52.310;7.230;2023-04-24T07:16:03;19.20;;;7.93;;
7729;SDS011;3908;52.310;7.230;2023-04-24T07:18:49;11.83;;;7.77;;
7729;SDS011;3908;52.310;7.230;2023-04-24T07:21:36;11.53;;;8.43;;
7729;SDS011;3908;52.310;7.230;2023-04-24T07:24:23;12.80;;;8.80;;
7729;SDS011;3908;52.310;7.230;2023-04-24T07:27:10;9.57;;;7.90;;
7729;SDS011;3908;52.310;7.230;2023-04-24T07:29:58;13.30;;;7.90;;
7729;SDS011;3908;52.310;7.230;2023-04-24T07:32:46;10.47;;;6.87;;
7729;SDS011;3908;52.310;7.230;2023-04-24T07:35:32;11.17;;;7.00;;
7729;SDS011;3908;52.310;7.230;2023-04-24T07:38:19;10.10;;;6.50;;
7729;SDS011;3908;52.310;7.230;2023-04-24T07:41:07;8.37;;;5.83;;
7729;SDS011;3908;52.310;7.230;2023-04-24T07:43:54;11.40;;;5.97;;
7729;SDS011;3908;52.310;7.230;2023-04-24T07:46:42;11.50;;;6.23;;
7729;SDS011;3908;52.310;7.230;2023-04-24T07:49:29;9.97;;;6.53;;
7729;SDS011;3908;52.310;7.230;2023-04-24T07:52:15;8.57;;;6.00;;
7729;SDS011;3908;52.310;7.230;2023-04-24T07:55:02;8.57;;;5.97;;
7729;SDS011;3908;52.310;7.230;2023-04-24T07:57:50;8.17;;;6.00;;
7729;SDS011;3908;52.310;7.230;2023-04-24T08:00:37;7.87;;;6.17;;
7729;SDS011;3908;52.310;7.230;2023-04-24T08:03:25;7.30;;;5.53;;
7729;SDS011;3908;52.310;7.230;2023-04-24T08:06:12;10.70;;;6.10;;
7729;SDS011;3908;52.310;7.230;2023-04-24T08:08:59;7.57;;;6.07;;
7729;SDS011;3908;52.310;7.230;2023-04-24T08:11:45;9.20;;;5.50;;
7729;SDS011;3908;52.310;7.230;2023-04-24T08:14:32;7.97;;;5.80;;
7729;SDS011;3908;52.310;7.230;2023-04-24T08:17:19;9.03;;;6.30;;
7729;SDS011;3908;52.310;7.230;2023-04-24T08:20:08;8.50;;;6.40;;
7729;SDS011;3908;52.310;7.230;2023-04-24T08:22:58;10.93;;;6.17;;
7729;SDS011;3908;52.310;7.230;2023-04-24T08:25:45;9.43;;;6.37;;
7729;SDS011;3908;52.310;7.230;2023-04-24T08:28:32;7.60;;;6.10;;
7729;SDS011;3908;52.310;7.230;2023-04-24T08:31:19;11.47;;;6.23;;
7729;SDS011;3908;52.310;7.230;2023-04-24T08:34:06;9.03;;;6.60;;
7729;SDS011;3908;52.310;7.230;2023-04-24T08:36:54;10.37;;;6.60;;
7729;SDS011;3908;52.310;7.230;2023-04-24T08:39:41;8.50;;;6.43;;
7729;SDS011;3908;52.310;7.230;2023-04-24T08:42:28;10.90;;;7.20;;
7729;SDS011;3908;52.310;7.230;2023-04-24T08:45:17;9.77;;;5.83;;
7729;SDS011;3908;52.310;7.230;2023-04-24T08:48:04;7.87;;;5.80;;
7729;SDS011;3908;52.310;7.230;2023-04-24T08:50:51;7.80;;;6.37;;
7729;SDS011;3908;52.310;7.230;2023-04-24T08:53:39;8.17;;;5.73;;
7729;SDS011;3908;52.310;7.230;2023-04-24T08:56:26;7.87;;;5.97;;
7729;SDS011;3908;52.310;7.230;2023-04-24T08:59:13;9.50;;;5.80;;
7729;SDS011;3908;52.310;7.230;2023-04-24T09:02:00;10.10;;;6.03;;
7729;SDS011;3908;52.310;7.230;2023-04-24T09:04:49;6.47;;;5.00;;
7729;SDS011;3908;52.310;7.230;2023-04-24T09:07:37;10.30;;;5.10;;
7729;SDS011;3908;52.310;7.230;2023-04-24T09:10:27;7.00;;;4.80;;
7729;SDS011;3908;52.310;7.230;2023-04-24T09:13:15;8.87;;;5.60;;
7729;SDS011;3908;52.310;7.230;2023-04-24T09:16:02;7.83;;;4.97;;
7729;SDS011;3908;52.310;7.230;2023-04-24T09:18:49;8.90;;;4.77;;
7729;SDS011;3908;52.310;7.230;2023-04-24T09:21:36;8.53;;;5.00;;
7729;SDS011;3908;52.310;7.230;2023-04-24T09:24:23;6.30;;;4.90;;
7729;SDS011;3908;52.310;7.230;2023-04-24T09:27:11;6.53;;;4.70;;
7729;SDS011;3908;52.310;7.230;2023-04-24T09:29:59;6.70;;;4.80;;
7729;SDS011;3908;52.310;7.230;2023-04-24T09:32:46;6.07;;;4.30;;
7729;SDS011;3908;52.310;7.230;2023-04-24T09:35:33;5.90;;;4.70;;
7729;SDS011;3908;52.310;7.230;2023-04-24T09:38:20;5.60;;;3.87;;
7729;SDS011;3908;52.310;7.230;2023-04-24T09:41:16;4.93;;;3.97;;
7729;SDS011;3908;52.310;7.230;2023-04-24T09:44:12;5.50;;;3.77;;
7729;SDS011;3908;52.310;7.230;2023-04-24T09:46:59;5.13;;;3.87;;
7729;SDS011;3908;52.310;7.230;2023-04-24T09:49:46;5.00;;;3.30;;
7729;SDS011;3908;52.310;7.230;2023-04-24T09:52:33;5.23;;;3.97;;
7729;SDS011;3908;52.310;7.230;2023-04-24T09:55:20;4.90;;;3.50;;
7729;SDS011;3908;52.310;7.230;2023-04-24T09:58:07;6.07;;;4.07;;
7729;SDS011;3908;52.310;7.230;2023-04-24T10:00:56;6.47;;;4.20;;
7729;SDS011;3908;52.310;7.230;2023-04-24T10:03:42;5.30;;;3.33;;
7729;SDS011;3908;52.310;7.230;2023-04-24T10:06:34;6.63;;;3.67;;
7729;SDS011;3908;52.310;7.230;2023-04-24T10:09:21;6.40;;;3.67;;
7729;SDS011;3908;52.310;7.230;2023-04-24T10:12:08;7.77;;;4.67;;
7729;SDS011;3908;52.310;7.230;2023-04-24T10:14:55;12.30;;;7.47;;
7729;SDS011;3908;52.310;7.230;2023-04-24T10:17:44;14.73;;;7.90;;
7729;SDS011;3908;52.310;7.230;2023-04-24T10:20:38;13.93;;;8.07;;
7729;SDS011;3908;52.310;7.230;2023-04-24T10:23:25;14.83;;;8.93;;
7729;SDS011;3908;52.310;7.230;2023-04-24T10:26:12;15.63;;;9.33;;
7729;SDS011;3908;52.310;7.230;2023-04-24T10:29:02;15.17;;;9.23;;
7729;SDS011;3908;52.310;7.230;2023-04-24T10:31:51;15.80;;;8.90;;
7729;SDS011;3908;52.310;7.230;2023-04-24T10:34:40;14.90;;;8.00;;
7729;SDS011;3908;52.310;7.230;2023-04-24T10:37:26;15.63;;;8.00;;
7729;SDS011;3908;52.310;7.230;2023-04-24T10:40:16;16.53;;;7.63;;
7729;SDS011;3908;52.310;7.230;2023-04-24T10:43:03;15.93;;;8.07;;
7729;SDS011;3908;52.310;7.230;2023-04-24T10:46:01;11.63;;;7.70;;
7729;SDS011;3908;52.310;7.230;2023-04-24T10:48:52;11.70;;;8.10;;
7729;SDS011;3908;52.310;7.230;2023-04-24T10:51:47;13.33;;;7.60;;
7729;SDS011;3908;52.310;7.230;2023-04-24T10:54:35;12.80;;;6.93;;
7729;SDS011;3908;52.310;7.230;2023-04-24T10:57:25;11.87;;;7.57;;
7729;SDS011;3908;52.310;7.230;2023-04-24T11:00:15;10.37;;;6.77;;
7729;SDS011;3908;52.310;7.230;2023-04-24T11:03:03;12.00;;;7.80;;
7729;SDS011;3908;52.310;7.230;2023-04-24T11:05:52;18.00;;;7.97;;
7729;SDS011;3908;52.310;7.230;2023-04-24T11:08:42;12.40;;;7.63;;
7729;SDS011;3908;52.310;7.230;2023-04-24T11:11:29;10.00;;;7.10;;
7729;SDS011;3908;52.310;7.230;2023-04-24T11:14:16;11.57;;;7.20;;
7729;SDS011;3908;52.310;7.230;2023-04-24T11:17:03;16.93;;;6.67;;
7729;SDS011;3908;52.310;7.230;2023-04-24T11:19:50;10.03;;;7.73;;
7729;SDS011;3908;52.310;7.230;2023-04-24T11:22:37;11.97;;;6.97;;
7729;SDS011;3908;52.310;7.230;2023-04-24T11:25:28;10.00;;;6.20;;
7729;SDS011;3908;52.310;7.230;2023-04-24T11:28:16;11.77;;;5.70;;
7729;SDS011;3908;52.310;7.230;2023-04-24T11:34:06;7.70;;;5.40;;
7729;SDS011;3908;52.310;7.230;2023-04-24T11:36:53;10.33;;;4.93;;
7729;SDS011;3908;52.310;7.230;2023-04-24T11:39:40;6.97;;;4.67;;
7729;SDS011;3908;52.310;7.230;2023-04-24T11:42:28;7.83;;;4.07;;
7729;SDS011;3908;52.310;7.230;2023-04-24T11:45:16;7.10;;;3.60;;
7729;SDS011;3908;52.310;7.230;2023-04-24T11:48:03;5.87;;;3.37;;
7729;SDS011;3908;52.310;7.230;2023-04-24T11:50:50;12.87;;;4.10;;
7729;SDS011;3908;52.310;7.230;2023-04-24T11:53:37;7.00;;;3.87;;
7729;SDS011;3908;52.310;7.230;2023-04-24T11:56:24;9.73;;;4.20;;
7729;SDS011;3908;52.310;7.230;2023-04-24T11:59:12;10.23;;;3.90;;
7729;SDS011;3908;52.310;7.230;2023-04-24T12:01:59;12.33;;;3.60;;
7729;SDS011;3908;52.310;7.230;2023-04-24T12:04:46;10.50;;;4.07;;
7729;SDS011;3908;52.310;7.230;2023-04-24T12:07:39;8.00;;;3.70;;
7729;SDS011;3908;52.310;7.230;2023-04-24T12:10:28;7.93;;;3.47;;
7729;SDS011;3908;52.310;7.230;2023-04-24T12:13:15;9.03;;;4.00;;
7729;SDS011;3908;52.310;7.230;2023-04-24T12:16:04;6.17;;;3.40;;
7729;SDS011;3908;52.310;7.230;2023-04-24T12:18:51;10.80;;;4.20;;
7729;SDS011;3908;52.310;7.230;2023-04-24T12:21:38;10.17;;;3.87;;
7729;SDS011;3908;52.310;7.230;2023-04-24T12:24:24;8.10;;;3.37;;
7729;SDS011;3908;52.310;7.230;2023-04-24T12:27:18;9.47;;;3.43;;
7729;SDS011;3908;52.310;7.230;2023-04-24T12:30:05;9.07;;;3.50;;
7729;SDS011;3908;52.310;7.230;2023-04-24T12:32:53;10.87;;;3.63;;
7729;SDS011;3908;52.310;7.230;2023-04-24T12:35:40;6.07;;;3.43;;
7729;SDS011;3908;52.310;7.230;2023-04-24T12:38:28;6.97;;;3.00;;
7729;SDS011;3908;52.310;7.230;2023-04-24T12:41:15;9.70;;;3.40;;
7729;SDS011;3908;52.310;7.230;2023-04-24T12:44:10;6.10;;;3.10;;
7729;SDS011;3908;52.310;7.230;2023-04-24T12:46:57;5.43;;;3.20;;
7729;SDS011;3908;52.310;7.230;2023-04-24T12:49:45;12.60;;;3.50;;
7729;SDS011;3908;52.310;7.230;2023-04-24T12:52:34;6.80;;;2.90;;
7729;SDS011;3908;52.310;7.230;2023-04-24T12:55:21;8.07;;;3.07;;
7729;SDS011;3908;52.310;7.230;2023-04-24T12:58:07;7.30;;;3.17;;
7729;SDS011;3908;52.310;7.230;2023-04-24T13:00:54;5.03;;;3.20;;
7729;SDS011;3908;52.310;7.230;2023-04-24T13:03:41;6.40;;;3.20;;
7729;SDS011;3908;52.310;7.230;2023-04-24T13:06:29;8.70;;;3.20;;
7729;SDS011;3908;52.310;7.230;2023-04-24T13:09:16;8.13;;;3.03;;
7729;SDS011;3908;52.310;7.230;2023-04-24T13:12:03;7.70;;;2.80;;
7729;SDS011;3908;52.310;7.230;2023-04-24T13:14:50;6.30;;;2.57;;
7729;SDS011;3908;52.310;7.230;2023-04-24T13:17:37;4.13;;;3.03;;
7729;SDS011;3908;52.310;7.230;2023-04-24T13:20:24;8.63;;;3.27;;
7729;SDS011;3908;52.310;7.230;2023-04-24T13:23:12;6.07;;;2.87;;
7729;SDS011;3908;52.310;7.230;2023-04-24T13:26:00;5.83;;;2.27;;
7729;SDS011;3908;52.310;7.230;2023-04-24T13:28:47;3.80;;;2.20;;
7729;SDS011;3908;52.310;7.230;2023-04-24T13:31:34;7.47;;;3.37;;
7729;SDS011;3908;52.310;7.230;2023-04-24T13:34:23;5.67;;;2.30;;
7729;SDS011;3908;52.310;7.230;2023-04-24T13:37:10;6.33;;;2.33;;
7729;SDS011;3908;52.310;7.230;2023-04-24T13:39:59;5.73;;;2.10;;
7729;SDS011;3908;52.310;7.230;2023-04-24T13:42:46;7.37;;;2.30;;
7729;SDS011;3908;52.310;7.230;2023-04-24T13:45:32;4.03;;;2.40;;
7729;SDS011;3908;52.310;7.230;2023-04-24T13:48:19;3.57;;;2.37;;
7729;SDS011;3908;52.310;7.230;2023-04-24T13:51:06;6.93;;;3.07;;
7729;SDS011;3908;52.310;7.230;2023-04-24T13:53:53;7.93;;;2.77;;
7729;SDS011;3908;52.310;7.230;2023-04-24T13:56:41;8.00;;;2.77;;
7729;SDS011;3908;52.310;7.230;2023-04-24T13:59:28;4.27;;;2.17;;
7729;SDS011;3908;52.310;7.230;2023-04-24T14:02:15;4.17;;;2.17;;
7729;SDS011;3908;52.310;7.230;2023-04-24T14:05:02;4.90;;;2.80;;
7729;SDS011;3908;52.310;7.230;2023-04-24T14:07:51;7.17;;;3.03;;
7729;SDS011;3908;52.310;7.230;2023-04-24T14:10:38;5.43;;;2.50;;
7729;SDS011;3908;52.310;7.230;2023-04-24T14:13:26;3.73;;;1.93;;
7729;SDS011;3908;52.310;7.230;2023-04-24T14:16:13;5.97;;;2.27;;
7729;SDS011;3908;52.310;7.230;2023-04-24T14:19:03;3.20;;;1.73;;
7729;SDS011;3908;52.310;7.230;2023-04-24T14:21:50;3.90;;;1.93;;
7729;SDS011;3908;52.310;7.230;2023-04-24T14:24:37;3.80;;;1.83;;
7729;SDS011;3908;52.310;7.230;2023-04-24T14:27:24;2.83;;;1.87;;
7729;SDS011;3908;52.310;7.230;2023-04-24T14:30:16;2.87;;;1.50;;
7729;SDS011;3908;52.310;7.230;2023-04-24T14:33:03;2.63;;;1.30;;
7729;SDS011;3908;52.310;7.230;2023-04-24T14:35:49;1.93;;;1.30;;
7729;SDS011;3908;52.310;7.230;2023-04-24T14:38:37;3.97;;;1.57;;
7729;SDS011;3908;52.310;7.230;2023-04-24T14:41:24;1.93;;;1.20;;
7729;SDS011;3908;52.310;7.230;2023-04-24T14:44:11;2.60;;;1.40;;
7729;SDS011;3908;52.310;7.230;2023-04-24T14:47:00;4.00;;;1.50;;
7729;SDS011;3908;52.310;7.230;2023-04-24T14:49:47;4.33;;;1.40;;
7729;SDS011;3908;52.310;7.230;2023-04-24T14:52:34;2.60;;;1.57;;
7729;SDS011;3908;52.310;7.230;2023-04-24T14:55:22;1.73;;;1.30;;
7729;SDS011;3908;52.310;7.230;2023-04-24T14:58:08;7.17;;;1.90;;
7729;SDS011;3908;52.310;7.230;2023-04-24T15:00:55;3.10;;;1.43;;
7729;SDS011;3908;52.310;7.230;2023-04-24T15:03:43;4.23;;;2.07;;
7729;SDS011;3908;52.310;7.230;2023-04-24T15:06:31;2.50;;;1.60;;
7729;SDS011;3908;52.310;7.230;2023-04-24T15:09:18;2.00;;;1.60;;
7729;SDS011;3908;52.310;7.230;2023-04-24T15:12:05;3.20;;;1.50;;
7729;SDS011;3908;52.310;7.230;2023-04-24T15:14:52;8.80;;;2.20;;
7729;SDS011;3908;52.310;7.230;2023-04-24T15:17:38;4.63;;;1.20;;
7729;SDS011;3908;52.310;7.230;2023-04-24T15:20:27;3.83;;;1.33;;
7729;SDS011;3908;52.310;7.230;2023-04-24T15:23:14;4.77;;;1.80;;
7729;SDS011;3908;52.310;7.230;2023-04-24T15:26:00;3.73;;;1.83;;
7729;SDS011;3908;52.310;7.230;2023-04-24T15:28:47;2.27;;;1.37;;
7729;SDS011;3908;52.310;7.230;2023-04-24T15:31:34;6.00;;;1.80;;
7729;SDS011;3908;52.310;7.230;2023-04-24T15:34:25;2.33;;;1.70;;
7729;SDS011;3908;52.310;7.230;2023-04-24T15:37:13;5.10;;;2.20;;
7729;SDS011;3908;52.310;7.230;2023-04-24T15:40:00;5.47;;;2.13;;
7729;SDS011;3908;52.310;7.230;2023-04-24T15:42:49;5.80;;;2.27;;
7729;SDS011;3908;52.310;7.230;2023-04-24T15:45:36;7.57;;;2.20;;
7729;SDS011;3908;52.310;7.230;2023-04-24T15:48:23;8.23;;;2.40;;
7729;SDS011;3908;52.310;7.230;2023-04-24T15:51:09;7.40;;;2.20;;
7729;SDS011;3908;52.310;7.230;2023-04-24T15:53:58;5.07;;;2.40;;
7729;SDS011;3908;52.310;7.230;2023-04-24T15:56:44;7.30;;;2.33;;
7729;SDS011;3908;52.310;7.230;2023-04-24T15:59:31;4.63;;;2.07;;
7729;SDS011;3908;52.310;7.230;2023-04-24T16:02:18;4.37;;;2.13;;
7729;SDS011;3908;52.310;7.230;2023-04-24T16:05:05;5.20;;;2.70;;
7729;SDS011;3908;52.310;7.230;2023-04-24T16:07:53;9.13;;;2.83;;
7729;SDS011;3908;52.310;7.230;2023-04-24T16:10:41;8.57;;;2.53;;
7729;SDS011;3908;52.310;7.230;2023-04-24T16:13:28;11.63;;;3.40;;
7729;SDS011;3908;52.310;7.230;2023-04-24T16:16:16;10.83;;;3.17;;
7729;SDS011;3908;52.310;7.230;2023-04-24T16:19:05;8.67;;;2.40;;
7729;SDS011;3908;52.310;7.230;2023-04-24T16:21:52;6.97;;;2.77;;
7729;SDS011;3908;52.310;7.230;2023-04-24T16:24:40;6.40;;;2.50;;
7729;SDS011;3908;52.310;7.230;2023-04-24T16:27:29;6.93;;;2.90;;
7729;SDS011;3908;52.310;7.230;2023-04-24T16:30:16;9.67;;;2.97;;
7729;SDS011;3908;52.310;7.230;2023-04-24T16:33:03;4.97;;;2.57;;
7729;SDS011;3908;52.310;7.230;2023-04-24T16:35:51;11.17;;;2.70;;
7729;SDS011;3908;52.310;7.230;2023-04-24T16:38:38;7.43;;;3.17;;
7729;SDS011;3908;52.310;7.230;2023-04-24T16:41:25;7.53;;;2.83;;
7729;SDS011;3908;52.310;7.230;2023-04-24T16:44:13;8.10;;;3.10;;
7729;SDS011;3908;52.310;7.230;2023-04-24T16:47:00;8.83;;;3.20;;
7729;SDS011;3908;52.310;7.230;2023-04-24T16:49:47;9.93;;;3.40;;
7729;SDS011;3908;52.310;7.230;2023-04-24T16:52:34;14.73;;;3.87;;
7729;SDS011;3908;52.310;7.230;2023-04-24T16:55:21;9.50;;;2.73;;
7729;SDS011;3908;52.310;7.230;2023-04-24T16:58:09;7.77;;;3.27;;
7729;SDS011;3908;52.310;7.230;2023-04-24T17:00:57;5.57;;;2.83;;
7729;SDS011;3908;52.310;7.230;2023-04-24T17:03:44;7.53;;;3.00;;
7729;SDS011;3908;52.310;7.230;2023-04-24T17:06:31;4.70;;;2.27;;
7729;SDS011;3908;52.310;7.230;2023-04-24T17:09:18;6.23;;;2.67;;
7729;SDS011;3908;52.310;7.230;2023-04-24T17:12:05;8.53;;;2.53;;
7729;SDS011;3908;52.310;7.230;2023-04-24T17:14:52;11.17;;;3.07;;